Time;durP1;ratioP1;P1;durP2;ratioP2;P2;SDS_P1;SDS_P2;PMS_P1;PMS_P2;Temp;Humidity;BMP_temperature;BMP_pressure;BME280_temperature;BME280_humidity;BME280_pressure;Samples;Min_cycle;Max_cycle;Signal;HPM_P1;HPM_P2
2021/06/21 00:02:23;;;;;;;3.63;2.30;;;25.80;63.30;;;;;;20961783;28;20521;-79
2021/06/21 00:12:24;;;;;;;3.50;2.40;;;25.70;63.20;;;;;;20977362;28;20044;-79
2021/06/21 00:22:24;;;;;;;2.97;2.47;;;25.70;63.30;;;;;;20959728;28;20249;-80
2021/06/21 00:32:26;;;;;;;3.00;2.42;;;25.70;63.40;;;;;;20976731;28;20036;-81
2021/06/21 00:42:28;;;;;;;3.87;2.90;;;25.60;63.40;;;;;;20993167;28;20119;-83
2021/06/21 00:52:29;;;;;;;4.22;2.92;;;25.60;63.50;;;;;;20974518;28;20291;-81
2021/06/21 01:02:29;;;;;;;4.82;3.05;;;25.60;63.60;;;;;;20958687;28;20027;-82
2021/06/21 01:12:52;;;;;;;4.60;2.97;;;25.60;64.40;;;;;;20976167;28;20041;-83
2021/06/21 01:23:11;;;;;;;4.28;2.78;;;25.60;63.90;;;;;;20981508;28;20293;-82
2021/06/21 01:33:11;;;;;;;3.30;2.25;;;25.60;64.10;;;;;;20991689;28;20482;-84
2021/06/21 01:43:14;;;;;;;5.05;2.83;;;25.50;64.10;;;;;;20974895;28;20077;-84
2021/06/21 01:53:18;;;;;;;4.38;2.83;;;25.70;64.40;;;;;;20990882;28;20033;-82
2021/06/21 02:03:19;;;;;;;3.95;2.92;;;25.50;64.30;;;;;;20973943;28;20032;-83
2021/06/21 02:13:21;;;;;;;4.47;3.03;;;25.50;64.30;;;;;;20988316;28;20054;-84
2021/06/21 02:23:23;;;;;;;4.10;3.08;;;25.50;64.40;;;;;;20972744;28;20536;-83
2021/06/21 02:33:24;;;;;;;3.58;2.78;;;25.40;64.40;;;;;;20970781;28;20048;-83
2021/06/21 02:43:25;;;;;;;4.07;2.95;;;25.40;65.10;;;;;;20987003;28;20106;-86
2021/06/21 02:53:35;;;;;;;5.43;3.00;;;25.40;64.50;;;;;;20970352;28;20040;-85
2021/06/21 03:03:49;;;;;;;4.78;2.90;;;25.40;64.40;;;;;;20985868;28;20120;-83
2021/06/21 03:13:52;;;;;;;4.05;2.40;;;25.40;64.30;;;;;;20966090;28;20461;-80
2021/06/21 03:23:53;;;;;;;3.65;2.58;;;25.40;64.30;;;;;;20963094;28;20032;-74
2021/06/21 03:33:55;;;;;;;4.38;2.72;;;25.40;64.40;;;;;;20979801;28;20040;-75
2021/06/21 03:43:55;;;;;;;3.42;2.42;;;25.40;64.50;;;;;;20994321;28;20029;-78
2021/06/21 03:53:56;;;;;;;3.53;2.50;;;25.40;64.60;;;;;;20995283;28;20044;-76
2021/06/21 04:03:59;;;;;;;4.35;2.58;;;25.30;64.50;;;;;;20994601;28;20174;-76
2021/06/21 04:13:59;;;;;;;3.55;2.30;;;25.30;64.60;;;;;;20977847;28;20200;-73
2021/06/21 04:24:00;;;;;;;2.80;2.38;;;25.30;64.60;;;;;;20960157;28;20060;-74
2021/06/21 04:34:01;;;;;;;2.80;2.10;;;25.30;64.60;;;;;;20976304;28;20072;-76
2021/06/21 04:44:01;;;;;;;4.60;2.47;;;25.30;64.60;;;;;;20974572;28;20028;-75
2021/06/21 04:54:02;;;;;;;2.43;1.70;;;25.30;64.60;;;;;;20992154;28;20032;-75
2021/06/21 05:04:05;;;;;;;2.63;2.30;;;25.20;64.60;;;;;;20989739;28;20455;-83
2021/06/21 05:14:07;;;;;;;;;;;25.20;64.60;;;;;;21003219;28;20128;-82
2021/06/21 05:24:08;;;;;;;4.00;2.05;;;25.20;64.70;;;;;;20992061;28;19956;-79
2021/06/21 05:34:09;;;;;;;3.13;1.98;;;25.20;64.70;;;;;;20962183;28;20036;-83
2021/06/21 05:44:10;;;;;;;3.33;1.80;;;25.20;64.80;;;;;;21008913;28;20050;-93
2021/06/21 05:54:13;;;;;;;2.10;1.58;;;25.10;64.80;;;;;;21003107;28;20691;-92
2021/06/21 06:04:13;;;;;;;3.08;1.60;;;25.20;64.80;;;;;;21060907;28;20070;-82
2021/06/21 06:14:28;;;;;;;5.65;2.38;;;25.10;64.80;;;;;;20991775;28;20087;-82
2021/06/21 06:24:29;;;;;;;3.83;1.37;;;24.90;65.10;;;;;;21027317;28;20067;-82
2021/06/21 06:34:31;;;;;;;1.92;1.23;;;24.80;65.50;;;;;;20981680;28;20063;-85
2021/06/21 06:44:32;;;;;;;1.92;1.42;;;24.80;65.50;;;;;;20990379;28;20031;-85
2021/06/21 07:04:55;;;;;;;3.20;2.00;;;24.70;65.90;;;;;;21037290;28;20075;-81
2021/06/21 07:14:57;;;;;;;3.40;2.03;;;24.70;65.90;;;;;;21017355;28;20044;-84
2021/06/21 07:24:59;;;;;;;4.00;2.38;;;24.70;66.10;;;;;;20913616;28;20029;-86
2021/06/21 07:35:01;;;;;;;5.97;2.45;;;24.60;66.40;;;;;;20946998;28;20048;-87
2021/06/21 07:45:04;;;;;;;4.30;2.50;;;24.60;66.50;;;;;;21013687;28;20056;-88
2021/06/21 07:55:05;;;;;;;5.88;3.53;;;24.50;66.80;;;;;;20982997;28;20109;-88
2021/06/21 08:05:09;;;;;;;6.32;4.25;;;24.40;67.20;;;;;;20979161;28;20036;-85
2021/06/21 08:15:11;;;;;;;6.10;4.10;;;24.40;68.80;;;;;;21010073;28;20561;-84
2021/06/21 08:25:12;;;;;;;4.57;3.78;;;24.40;68.80;;;;;;21019773;28;20428;-84
2021/06/21 08:35:14;;;;;;;7.68;4.95;;;24.50;68.80;;;;;;20985971;28;20106;-84
2021/06/21 08:45:15;;;;;;;8.00;4.82;;;24.50;69.60;;;;;;20986969;28;20780;-87
2021/06/21 08:55:17;;;;;;;6.18;4.18;;;24.60;69.90;;;;;;20953824;28;20096;-86
2021/06/21 09:05:18;;;;;;;6.78;4.70;;;24.60;69.90;;;;;;20997423;28;20028;-86
2021/06/21 09:15:18;;;;;;;5.07;4.40;;;24.60;69.80;;;;;;21027337;28;20047;-89
2021/06/21 09:25:19;;;;;;;8.95;4.55;;;24.60;69.80;;;;;;21381437;22;20036;-88
2021/06/21 09:35:30;;;;;;;10.65;5.20;;;24.60;69.70;;;;;;20992573;28;20029;-88
2021/06/21 09:45:32;;;;;;;6.00;4.53;;;24.70;70.00;;;;;;20960808;28;20506;-86
2021/06/21 09:55:39;;;;;;;5.47;3.53;;;24.70;70.00;;;;;;20889381;28;20039;-85
2021/06/21 10:05:43;;;;;;;6.65;4.28;;;24.70;70.20;;;;;;21056075;28;20040;-81
2021/06/21 10:15:48;;;;;;;5.93;3.20;;;24.70;70.20;;;;;;20995576;28;20478;-81
2021/06/21 10:25:49;;;;;;;6.50;2.65;;;24.90;70.20;;;;;;21030870;28;20029;-84
2021/06/21 10:35:50;;;;;;;7.15;3.15;;;24.70;69.80;;;;;;20920320;28;20047;-81
2021/06/21 10:45:51;;;;;;;5.45;2.00;;;24.70;69.60;;;;;;20964141;28;20044;-77
2021/06/21 10:55:52;;;;;;;3.78;1.88;;;24.70;68.90;;;;;;21000167;28;20036;-81
2021/06/21 11:05:57;;;;;;;5.85;1.73;;;24.70;68.20;;;;;;20980442;28;20036;-81
2021/06/21 11:16:18;;;;;;;5.90;1.15;;;24.70;67.50;;;;;;20975277;28;20071;-81
2021/06/21 11:26:19;;;;;;;5.65;1.52;;;24.70;66.90;;;;;;21025270;28;20036;-80
2021/06/21 11:36:39;;;;;;;6.75;1.50;;;24.70;66.80;;;;;;21062510;28;20072;-75
2021/06/21 11:46:45;;;;;;;4.82;1.45;;;24.70;66.60;;;;;;20979064;28;20036;-75
2021/06/21 11:56:52;;;;;;;4.07;1.40;;;24.70;66.40;;;;;;20915170;28;20475;-72
2021/06/21 12:06:53;;;;;;;5.82;1.98;;;24.80;66.20;;;;;;20952235;28;20510;-73
2021/06/21 12:17:02;;;;;;;3.88;1.45;;;24.80;65.90;;;;;;20953201;28;20063;-72
2021/06/21 12:27:05;;;;;;;2.45;1.40;;;24.90;65.90;;;;;;20938089;28;20445;-72
2021/06/21 12:37:27;;;;;;;4.10;1.58;;;24.80;65.60;;;;;;20982295;28;20075;-77
2021/06/21 12:47:28;;;;;;;4.20;1.40;;;24.90;65.50;;;;;;20974628;28;20131;-78
2021/06/21 12:57:48;;;;;;;5.03;1.52;;;24.90;65.50;;;;;;20926966;28;20064;-76
2021/06/21 13:07:49;;;;;;;3.03;1.30;;;24.80;65.90;;;;;;20952736;28;20128;-79
2021/06/21 13:17:51;;;;;;;2.42;1.17;;;24.90;65.30;;;;;;20937837;28;20135;-78
2021/06/21 13:27:57;;;;;;;4.85;1.42;;;24.80;65.20;;;;;;20952312;28;20463;-70
2021/06/21 13:37:58;;;;;;;2.58;0.95;;;24.80;65.20;;;;;;20989170;28;20028;-78
2021/06/21 13:48:18;;;;;;;6.20;1.10;;;24.90;65.20;;;;;;21054486;28;20039;-79
2021/06/21 13:58:34;;;;;;;3.22;1.50;;;24.90;65.20;;;;;;21064675;28;20035;-78
2021/06/21 14:08:35;;;;;;;2.15;1.20;;;24.90;65.10;;;;;;21014566;28;20044;-78
2021/06/21 14:18:36;;;;;;;3.90;1.33;;;24.90;65.10;;;;;;20960644;28;20054;-80
2021/06/21 14:28:39;;;;;;;1.98;1.10;;;24.90;65.10;;;;;;20945700;28;20058;-79
2021/06/21 14:38:39;;;;;;;2.67;1.20;;;24.90;65.70;;;;;;20963559;28;20032;-81
2021/06/21 14:48:44;;;;;;;1.83;0.98;;;25.00;65.10;;;;;;20965341;28;20535;-78
2021/06/21 14:58:44;;;;;;;3.13;1.50;;;24.90;65.00;;;;;;20945223;28;20075;-78
2021/06/21 15:08:46;;;;;;;2.05;1.00;;;24.90;65.10;;;;;;20945359;28;20048;-75
2021/06/21 15:18:47;;;;;;;3.87;1.50;;;25.00;65.00;;;;;;20959136;28;20041;-75
2021/06/21 15:28:47;;;;;;;2.10;1.00;;;25.10;64.90;;;;;;20941906;28;20032;-76
2021/06/21 15:38:48;;;;;;;2.88;1.13;;;25.20;64.70;;;;;;20956711;28;20714;-75
2021/06/21 15:48:48;;;;;;;4.60;1.77;;;25.30;64.60;;;;;;20956202;28;20526;-74
2021/06/21 15:58:49;;;;;;;2.33;1.37;;;25.40;64.50;;;;;;20955205;28;20032;-75
2021/06/21 16:08:50;;;;;;;3.33;2.03;;;25.30;64.30;;;;;;20922793;28;20930;-77
2021/06/21 16:18:50;;;;;;;1.33;1.00;;;25.30;64.30;;;;;;20937972;28;20150;-75
2021/06/21 16:28:52;;;;;;;2.27;1.33;;;25.20;64.10;;;;;;20956940;28;20666;-77
2021/06/21 16:38:53;;;;;;;5.88;1.55;;;25.30;64.10;;;;;;20956301;28;20036;-76
2021/06/21 16:48:53;;;;;;;4.13;1.40;;;25.40;64.00;;;;;;20935843;28;20040;-75
2021/06/21 16:58:55;;;;;;;2.42;1.25;;;25.40;64.00;;;;;;20967968;28;20478;-76
2021/06/21 17:08:56;;;;;;;3.78;1.30;;;25.40;64.20;;;;;;20951951;28;20117;-77
2021/06/21 17:18:57;;;;;;;3.92;1.05;;;25.30;64.30;;;;;;20934881;28;20080;-77
2021/06/21 17:28:59;;;;;;;2.30;1.30;;;25.20;64.60;;;;;;20933068;28;20115;-78
2021/06/21 17:39:00;;;;;;;2.65;1.05;;;25.20;65.00;;;;;;20987153;28;20040;-77
2021/06/21 17:49:01;;;;;;;2.97;1.23;;;25.20;65.40;;;;;;20939320;28;20055;-76
2021/06/21 17:59:01;;;;;;;1.98;1.20;;;25.10;65.60;;;;;;20953750;28;20635;-78
2021/06/21 18:09:02;;;;;;;4.43;1.40;;;25.00;65.80;;;;;;20954033;28;20425;-77
2021/06/21 18:19:02;;;;;;;2.05;1.30;;;25.00;66.00;;;;;;20952451;28;20391;-77
2021/06/21 18:29:05;;;;;;;2.40;1.60;;;25.10;66.30;;;;;;20952608;28;20035;-78
2021/06/21 18:39:06;;;;;;;3.90;1.92;;;24.90;66.20;;;;;;20967939;28;20386;-77
2021/06/21 18:49:07;;;;;;;3.13;1.52;;;24.90;66.30;;;;;;20933214;28;20132;-78
2021/06/21 18:59:07;;;;;;;2.38;1.58;;;24.90;66.40;;;;;;20933120;28;20124;-77
2021/06/21 19:09:10;;;;;;;3.67;1.73;;;24.80;66.40;;;;;;20945962;28;20036;-78
2021/06/21 19:19:11;;;;;;;2.28;1.65;;;24.80;66.50;;;;;;20962498;28;20059;-77
2021/06/21 19:29:12;;;;;;;1.45;1.20;;;24.70;66.40;;;;;;20945432;28;20467;-76
2021/06/21 19:39:12;;;;;;;1.67;1.48;;;24.70;66.50;;;;;;20944585;28;20130;-77
2021/06/21 19:49:13;;;;;;;2.42;1.80;;;24.70;66.60;;;;;;20975063;28;20028;-77
2021/06/21 19:59:14;;;;;;;2.20;1.70;;;24.70;66.50;;;;;;20951875;28;20059;-78
2021/06/21 20:09:14;;;;;;;2.20;1.63;;;24.70;66.60;;;;;;20894879;28;20167;-78
2021/06/21 20:19:15;;;;;;;1.70;1.50;;;24.60;66.70;;;;;;20862665;28;20307;-78
2021/06/21 20:29:15;;;;;;;2.03;1.52;;;24.60;66.70;;;;;;20856525;28;20127;-77
2021/06/21 20:39:17;;;;;;;3.03;2.10;;;24.50;66.70;;;;;;20951155;28;20566;-78
2021/06/21 20:49:18;;;;;;;2.25;1.73;;;24.50;66.70;;;;;;20955976;28;20051;-78
2021/06/21 20:59:20;;;;;;;1.40;1.30;;;24.50;66.80;;;;;;20956227;28;20115;-77
2021/06/21 21:09:21;;;;;;;1.48;1.33;;;24.50;66.80;;;;;;20955719;28;20128;-78
2021/06/21 21:19:22;;;;;;;1.25;1.02;;;24.40;66.70;;;;;;20938169;28;20048;-78
2021/06/21 21:29:22;;;;;;;2.25;1.35;;;24.40;66.70;;;;;;20955163;28;20032;-78
2021/06/21 21:39:23;;;;;;;1.17;0.93;;;24.40;66.70;;;;;;20890572;28;20452;-79
2021/06/21 21:49:24;;;;;;;0.70;0.60;;;24.30;66.60;;;;;;20902192;28;20433;-78
2021/06/21 21:59:24;;;;;;;0.88;0.60;;;24.30;66.60;;;;;;20919893;28;20041;-78
2021/06/21 22:09:25;;;;;;;1.10;0.60;;;24.40;66.50;;;;;;20901187;28;20434;-79
2021/06/21 22:19:26;;;;;;;0.82;0.60;;;24.30;66.40;;;;;;20899924;28;20303;-79
2021/06/21 22:29:28;;;;;;;0.40;0.40;;;24.20;66.30;;;;;;20899299;28;20036;-78
2021/06/21 22:39:28;;;;;;;0.60;0.60;;;24.20;66.30;;;;;;20899827;28;20037;-78
2021/06/21 22:49:33;;;;;;;1.38;0.55;;;24.20;66.30;;;;;;20914594;28;20448;-78
2021/06/21 22:59:51;;;;;;;0.68;0.50;;;24.10;66.20;;;;;;20896763;28;20041;-78
2021/06/21 23:09:52;;;;;;;0.65;0.40;;;24.20;66.20;;;;;;20912476;28;20490;-78
2021/06/21 23:19:53;;;;;;;0.20;0.20;;;24.10;66.10;;;;;;20896025;28;20076;-78
2021/06/21 23:29:53;;;;;;;0.30;0.30;;;24.20;66.10;;;;;;20894466;28;20064;-78
2021/06/21 23:39:54;;;;;;;0.30;0.20;;;24.10;66.00;;;;;;20894073;28;20053;-78
2021/06/21 23:49:57;;;;;;;0.60;0.38;;;24.10;66.00;;;;;;20909245;28;20032;-79
2021/06/21 23:59:58;;;;;;;0.70;0.30;;;24.00;65.90;;;;;;20891093;28;20071;-77
